createdAt,value
2017-01-29T00:01:37.846Z,5.2
2017-01-29T00:11:52.022Z,5.1
2017-01-29T00:22:05.187Z,5.1
2017-01-29T00:32:19.241Z,5.1
2017-01-29T00:42:32.616Z,5.1
2017-01-29T00:52:47.037Z,5.3
2017-01-29T01:03:01.123Z,5.4
2017-01-29T01:13:14.890Z,5.3
2017-01-29T01:23:29.420Z,5.4
2017-01-29T01:33:43.007Z,5.4
2017-01-29T01:43:56.068Z,5.3
2017-01-29T01:54:09.591Z,5.2
2017-01-29T02:04:23.903Z,5.2
2017-01-29T02:14:37.167Z,4.9
2017-01-29T02:24:51.855Z,4.9
2017-01-29T02:35:06.045Z,4.7
2017-01-29T02:45:19.132Z,4.8
2017-01-29T02:55:33.107Z,4.5
2017-01-29T03:05:47.205Z,4.3
2017-01-29T03:16:01.101Z,4.4
2017-01-29T03:26:14.839Z,4.3
2017-01-29T03:36:29.875Z,4.1
2017-01-29T03:46:44.493Z,3.9
2017-01-29T03:56:58.844Z,3.8
2017-01-29T04:07:12.985Z,3.9
2017-01-29T04:17:26.884Z,3.7
2017-01-29T04:27:41.012Z,3.7
2017-01-29T04:37:55.608Z,3.9
2017-01-29T04:48:10.331Z,3.9
2017-01-29T04:58:25.214Z,3.9
2017-01-29T05:08:39.464Z,3.7
2017-01-29T05:18:54.151Z,3.5
2017-01-29T05:29:07.725Z,3.8
2017-01-29T05:39:21.823Z,3.6
2017-01-29T05:49:36.776Z,3.6
2017-01-29T05:59:51.880Z,3.5
2017-01-29T06:10:06.283Z,3.5
2017-01-29T06:20:20.387Z,3.7
2017-01-29T06:30:33.469Z,3.7
2017-01-29T06:40:46.642Z,4
2017-01-29T06:51:00.990Z,4
2017-01-29T07:01:15.618Z,3.9
2017-01-29T07:11:29.802Z,4.1
2017-01-29T07:21:44.033Z,3.9
2017-01-29T07:31:56.989Z,4.2
2017-01-29T07:42:11.091Z,4.2
2017-01-29T07:52:25.323Z,4.1
2017-01-29T08:02:39.554Z,4.3
2017-01-29T08:12:53.552Z,4.5
2017-01-29T08:23:08.099Z,4.3
2017-01-29T08:33:22.351Z,4.1
2017-01-29T08:43:37.282Z,4.1
2017-01-29T08:53:51.827Z,4.5
2017-01-29T09:04:06.042Z,4.5
2017-01-29T09:14:20.112Z,4.5
2017-01-29T09:24:34.804Z,4.6
2017-01-29T09:34:48.818Z,4.7
2017-01-29T09:45:02.473Z,4.8
2017-01-29T09:55:16.860Z,4.9
2017-01-29T10:05:30.501Z,4.8
2017-01-29T10:15:44.216Z,4.9
2017-01-29T10:25:59.084Z,4.9
2017-01-29T10:36:12.245Z,5.3
2017-01-29T10:46:27.303Z,5.5
2017-01-29T10:56:41.272Z,5.5
2017-01-29T11:06:55.762Z,5.6
2017-01-29T11:17:10.393Z,5.3
2017-01-29T11:27:24.749Z,5.6
2017-01-29T11:37:38.912Z,5.8
2017-01-29T11:47:53.449Z,6.5
2017-01-29T11:58:08.231Z,6.3
2017-01-29T12:08:22.059Z,6.4
2017-01-29T12:18:36.345Z,6.5
2017-01-29T12:28:50.966Z,6.6
2017-01-29T12:39:04.411Z,6.7
2017-01-29T12:49:18.265Z,6.8
2017-01-29T12:59:33.085Z,6.8
2017-01-29T13:09:46.036Z,6.6
2017-01-29T13:19:59.140Z,6.7
2017-01-29T13:30:13.271Z,6.7
2017-01-29T13:40:27.258Z,6.5
2017-01-29T13:50:41.918Z,6.7
2017-01-29T14:00:56.616Z,6.8
2017-01-29T14:11:11.505Z,7.1
2017-01-29T14:21:25.278Z,7.2
2017-01-29T14:31:38.432Z,7.3
2017-01-29T14:41:52.284Z,7.2
2017-01-29T14:52:06.487Z,6.9
2017-01-29T15:02:21.559Z,6.6
2017-01-29T15:12:36.208Z,6.8
2017-01-29T15:22:50.539Z,6.8
2017-01-29T15:33:05.115Z,6.5
2017-01-29T15:43:19.319Z,6.2
2017-01-29T15:53:32.586Z,5.9
2017-01-29T16:03:46.261Z,5.6
2017-01-29T16:14:00.499Z,5.3
2017-01-29T16:24:14.063Z,5.2
2017-01-29T16:34:28.176Z,5.4
2017-01-29T16:44:42.971Z,5.2
2017-01-29T16:54:56.578Z,5.2
2017-01-29T17:05:10.479Z,5.2
2017-01-29T17:15:24.199Z,5
2017-01-29T17:25:38.479Z,5
2017-01-29T17:35:52.604Z,5
2017-01-29T17:46:06.764Z,5.1
2017-01-29T17:56:21.883Z,5.1
2017-01-29T18:06:35.392Z,5
2017-01-29T18:16:50.166Z,4.7
2017-01-29T18:27:03.173Z,4.9
2017-01-29T18:37:17.738Z,5
2017-01-29T18:47:30.959Z,5
2017-01-29T18:57:45.557Z,4.5
2017-01-29T19:07:59.698Z,3.9
2017-01-29T19:18:13.535Z,3.3
2017-01-29T19:28:28.391Z,2.5
2017-01-29T19:38:42.438Z,2.4
2017-01-29T19:48:57.372Z,2.9
2017-01-29T19:59:10.519Z,2.9
2017-01-29T20:09:24.730Z,2.7
2017-01-29T20:19:38.534Z,2.9
2017-01-29T20:29:53.102Z,2.8
2017-01-29T20:40:07.060Z,2.7
2017-01-29T20:50:21.110Z,2.4
2017-01-29T21:10:49.679Z,1.9
2017-01-29T21:21:03.138Z,1.9
2017-01-29T21:31:17.733Z,1.8
2017-01-29T21:41:31.240Z,2
2017-01-29T21:51:45.264Z,2.4
2017-01-29T22:01:59.535Z,2.6
2017-01-29T22:12:13.133Z,2.9
2017-01-29T22:22:28.024Z,3.3
2017-01-29T22:32:42.476Z,3.2
2017-01-29T22:42:56.686Z,3.2
2017-01-29T22:53:12.128Z,3.1
2017-01-29T23:03:24.852Z,3.1
2017-01-29T23:13:38.640Z,3.2
2017-01-29T23:23:52.658Z,3.2
2017-01-29T23:34:05.868Z,3.1
2017-01-29T23:44:19.884Z,3.2
2017-01-29T23:54:35.522Z,3.1
